sensor_id;sensor_type;location;lat;lon;timestamp;temperature;humidity
48206;DHT22;33995;48.202;16.260;2023-04-24T00:01:37;15.30;99.90
48206;DHT22;33995;48.202;16.260;2023-04-24T00:04:08;15.30;99.90
48206;DHT22;33995;48.202;16.260;2023-04-24T00:06:38;15.30;99.90
48206;DHT22;33995;48.202;16.260;2023-04-24T00:09:07;15.30;99.90
48206;DHT22;33995;48.202;16.260;2023-04-24T00:11:37;15.30;99.90
48206;DHT22;33995;48.202;16.260;2023-04-24T00:14:04;15.20;99.90
48206;DHT22;33995;48.202;16.260;2023-04-24T00:16:31;15.20;99.90
48206;DHT22;33995;48.202;16.260;2023-04-24T00:18:58;15.20;99.90
48206;DHT22;33995;48.202;16.260;2023-04-24T00:21:27;15.20;99.90
48206;DHT22;33995;48.202;16.260;2023-04-24T00:23:54;15.10;99.90
48206;DHT22;33995;48.202;16.260;2023-04-24T00:26:21;15.00;99.90
48206;DHT22;33995;48.202;16.260;2023-04-24T00:28:50;14.90;99.90
48206;DHT22;33995;48.202;16.260;2023-04-24T00:31:18;14.90;99.90
48206;DHT22;33995;48.202;16.260;2023-04-24T00:33:45;14.80;99.90
48206;DHT22;33995;48.202;16.260;2023-04-24T00:36:13;14.80;99.90
48206;DHT22;33995;48.202;16.260;2023-04-24T00:38:40;14.70;99.90
48206;DHT22;33995;48.202;16.260;2023-04-24T00:41:08;14.70;99.90
48206;DHT22;33995;48.202;16.260;2023-04-24T00:43:35;14.60;99.90
48206;DHT22;33995;48.202;16.260;2023-04-24T00:46:03;14.50;99.90
48206;DHT22;33995;48.202;16.260;2023-04-24T00:48:30;14.40;99.90
48206;DHT22;33995;48.202;16.260;2023-04-24T00:50:58;14.40;99.90
48206;DHT22;33995;48.202;16.260;2023-04-24T00:53:25;14.50;99.90
48206;DHT22;33995;48.202;16.260;2023-04-24T00:55:52;14.50;99.90
48206;DHT22;33995;48.202;16.260;2023-04-24T00:58:20;14.20;99.90
48206;DHT22;33995;48.202;16.260;2023-04-24T01:00:49;14.20;99.90
48206;DHT22;33995;48.202;16.260;2023-04-24T01:03:22;14.20;99.90
48206;DHT22;33995;48.202;16.260;2023-04-24T01:05:49;14.10;99.90
48206;DHT22;33995;48.202;16.260;2023-04-24T01:08:17;14.00;99.90
48206;DHT22;33995;48.202;16.260;2023-04-24T01:10:44;13.90;99.90
48206;DHT22;33995;48.202;16.260;2023-04-24T01:13:14;13.80;99.90
48206;DHT22;33995;48.202;16.260;2023-04-24T01:15:44;13.70;99.90
48206;DHT22;33995;48.202;16.260;2023-04-24T01:18:11;13.60;99.90
48206;DHT22;33995;48.202;16.260;2023-04-24T01:20:40;13.70;99.90
48206;DHT22;33995;48.202;16.260;2023-04-24T01:23:09;13.80;99.90
48206;DHT22;33995;48.202;16.260;2023-04-24T01:25:36;13.80;99.90
48206;DHT22;33995;48.202;16.260;2023-04-24T01:28:03;13.90;99.90
48206;DHT22;33995;48.202;16.260;2023-04-24T01:30:31;13.80;99.90
48206;DHT22;33995;48.202;16.260;2023-04-24T01:32:58;13.70;99.90
48206;DHT22;33995;48.202;16.260;2023-04-24T01:35:26;13.40;99.90
48206;DHT22;33995;48.202;16.260;2023-04-24T01:37:53;13.40;99.90
48206;DHT22;33995;48.202;16.260;2023-04-24T01:40:21;13.50;99.90
48206;DHT22;33995;48.202;16.260;2023-04-24T01:42:48;13.50;99.90
48206;DHT22;33995;48.202;16.260;2023-04-24T01:45:17;13.40;99.90
48206;DHT22;33995;48.202;16.260;2023-04-24T01:47:45;13.40;99.90
48206;DHT22;33995;48.202;16.260;2023-04-24T01:50:18;13.40;99.90
48206;DHT22;33995;48.202;16.260;2023-04-24T01:52:45;13.30;99.90
48206;DHT22;33995;48.202;16.260;2023-04-24T01:55:12;13.30;99.90
48206;DHT22;33995;48.202;16.260;2023-04-24T01:57:40;13.30;99.90
48206;DHT22;33995;48.202;16.260;2023-04-24T02:00:09;13.20;99.90
48206;DHT22;33995;48.202;16.260;2023-04-24T02:02:42;13.30;99.90
48206;DHT22;33995;48.202;16.260;2023-04-24T02:05:13;13.40;99.90
48206;DHT22;33995;48.202;16.260;2023-04-24T02:07:41;13.30;99.90
48206;DHT22;33995;48.202;16.260;2023-04-24T02:10:09;13.40;99.90
48206;DHT22;33995;48.202;16.260;2023-04-24T02:12:41;13.30;99.90
48206;DHT22;33995;48.202;16.260;2023-04-24T02:15:09;13.20;99.90
48206;DHT22;33995;48.202;16.260;2023-04-24T02:17:36;13.10;99.90
48206;DHT22;33995;48.202;16.260;2023-04-24T02:20:07;13.10;99.90
48206;DHT22;33995;48.202;16.260;2023-04-24T02:22:35;13.20;99.90
48206;DHT22;33995;48.202;16.260;2023-04-24T02:25:02;13.20;99.90
48206;DHT22;33995;48.202;16.260;2023-04-24T02:27:29;13.20;99.90
48206;DHT22;33995;48.202;16.260;2023-04-24T02:29:56;13.20;99.90
48206;DHT22;33995;48.202;16.260;2023-04-24T02:32:25;13.20;99.90
48206;DHT22;33995;48.202;16.260;2023-04-24T02:34:52;13.20;99.90
48206;DHT22;33995;48.202;16.260;2023-04-24T02:37:19;13.20;99.90
48206;DHT22;33995;48.202;16.260;2023-04-24T02:39:46;13.20;99.90
48206;DHT22;33995;48.202;16.260;2023-04-24T02:42:13;13.30;99.90
48206;DHT22;33995;48.202;16.260;2023-04-24T02:44:40;13.10;99.90
48206;DHT22;33995;48.202;16.260;2023-04-24T02:47:10;13.20;99.90
48206;DHT22;33995;48.202;16.260;2023-04-24T02:49:37;13.20;99.90
48206;DHT22;33995;48.202;16.260;2023-04-24T02:52:04;13.10;99.90
48206;DHT22;33995;48.202;16.260;2023-04-24T02:54:31;13.10;99.90
48206;DHT22;33995;48.202;16.260;2023-04-24T02:56:58;13.10;99.90
48206;DHT22;33995;48.202;16.260;2023-04-24T02:59:28;13.20;99.90
48206;DHT22;33995;48.202;16.260;2023-04-24T03:01:55;13.10;99.90
48206;DHT22;33995;48.202;16.260;2023-04-24T03:04:24;12.90;99.90
48206;DHT22;33995;48.202;16.260;2023-04-24T03:06:53;13.00;99.90
48206;DHT22;33995;48.202;16.260;2023-04-24T03:09:21;13.00;99.90
48206;DHT22;33995;48.202;16.260;2023-04-24T03:11:49;13.00;99.90
48206;DHT22;33995;48.202;16.260;2023-04-24T03:14:16;13.00;99.90
48206;DHT22;33995;48.202;16.260;2023-04-24T03:16:44;13.10;99.90
48206;DHT22;33995;48.202;16.260;2023-04-24T03:19:15;13.10;99.90
48206;DHT22;33995;48.202;16.260;2023-04-24T03:22:02;13.00;99.90
48206;DHT22;33995;48.202;16.260;2023-04-24T03:24:30;13.00;99.90
48206;DHT22;33995;48.202;16.260;2023-04-24T03:26:59;13.00;99.90
48206;DHT22;33995;48.202;16.260;2023-04-24T03:29:45;12.90;99.90
48206;DHT22;33995;48.202;16.260;2023-04-24T03:32:16;13.00;99.90
48206;DHT22;33995;48.202;16.260;2023-04-24T03:34:48;13.10;99.90
48206;DHT22;33995;48.202;16.260;2023-04-24T03:37:16;13.10;99.90
48206;DHT22;33995;48.202;16.260;2023-04-24T03:39:50;13.10;99.90
48206;DHT22;33995;48.202;16.260;2023-04-24T03:42:23;13.10;99.90
48206;DHT22;33995;48.202;16.260;2023-04-24T03:44:54;13.20;99.90
48206;DHT22;33995;48.202;16.260;2023-04-24T03:47:27;13.20;99.90
48206;DHT22;33995;48.202;16.260;2023-04-24T03:49:57;13.20;99.90
48206;DHT22;33995;48.202;16.260;2023-04-24T03:52:24;13.20;99.90
48206;DHT22;33995;48.202;16.260;2023-04-24T03:54:52;13.20;99.90
48206;DHT22;33995;48.202;16.260;2023-04-24T03:57:19;13.30;99.90
48206;DHT22;33995;48.202;16.260;2023-04-24T03:59:59;13.30;99.90
48206;DHT22;33995;48.202;16.260;2023-04-24T04:02:27;13.40;99.90
48206;DHT22;33995;48.202;16.260;2023-04-24T04:04:54;13.30;99.90
48206;DHT22;33995;48.202;16.260;2023-04-24T04:07:22;13.40;99.90
48206;DHT22;33995;48.202;16.260;2023-04-24T04:09:49;13.30;99.90
48206;DHT22;33995;48.202;16.260;2023-04-24T04:12:16;13.20;99.90
48206;DHT22;33995;48.202;16.260;2023-04-24T04:14:43;13.30;99.90
48206;DHT22;33995;48.202;16.260;2023-04-24T04:17:10;13.40;99.90
48206;DHT22;33995;48.202;16.260;2023-04-24T04:19:37;13.40;99.90
48206;DHT22;33995;48.202;16.260;2023-04-24T04:22:08;13.40;99.90
48206;DHT22;33995;48.202;16.260;2023-04-24T04:24:47;13.40;99.90
48206;DHT22;33995;48.202;16.260;2023-04-24T04:27:14;13.40;99.90
48206;DHT22;33995;48.202;16.260;2023-04-24T04:29:53;13.50;99.90
48206;DHT22;33995;48.202;16.260;2023-04-24T04:32:20;13.50;99.90
48206;DHT22;33995;48.202;16.260;2023-04-24T04:34:48;13.50;99.90
48206;DHT22;33995;48.202;16.260;2023-04-24T04:37:16;13.60;99.90
48206;DHT22;33995;48.202;16.260;2023-04-24T04:39:53;13.60;99.90
48206;DHT22;33995;48.202;16.260;2023-04-24T04:42:24;13.60;99.90
48206;DHT22;33995;48.202;16.260;2023-04-24T04:44:51;13.60;99.90
48206;DHT22;33995;48.202;16.260;2023-04-24T04:47:24;13.60;99.90
48206;DHT22;33995;48.202;16.260;2023-04-24T04:49:55;13.60;99.90
48206;DHT22;33995;48.202;16.260;2023-04-24T04:52:26;13.60;99.90
48206;DHT22;33995;48.202;16.260;2023-04-24T04:55:20;13.60;99.90
48206;DHT22;33995;48.202;16.260;2023-04-24T04:58:07;13.70;99.90
48206;DHT22;33995;48.202;16.260;2023-04-24T05:00:35;13.80;99.90
48206;DHT22;33995;48.202;16.260;2023-04-24T05:03:15;13.80;99.90
48206;DHT22;33995;48.202;16.260;2023-04-24T05:05:57;13.80;99.90
48206;DHT22;33995;48.202;16.260;2023-04-24T05:08:25;13.90;99.90
48206;DHT22;33995;48.202;16.260;2023-04-24T05:10:55;13.80;99.90
48206;DHT22;33995;48.202;16.260;2023-04-24T05:13:23;13.90;99.90
48206;DHT22;33995;48.202;16.260;2023-04-24T05:16:10;13.90;99.90
48206;DHT22;33995;48.202;16.260;2023-04-24T05:18:38;13.90;99.90
48206;DHT22;33995;48.202;16.260;2023-04-24T05:21:09;13.90;99.90
48206;DHT22;33995;48.202;16.260;2023-04-24T05:23:40;13.90;99.90
48206;DHT22;33995;48.202;16.260;2023-04-24T05:26:07;13.80;99.90
48206;DHT22;33995;48.202;16.260;2023-04-24T05:28:34;13.90;99.90
48206;DHT22;33995;48.202;16.260;2023-04-24T05:31:08;14.00;99.90
48206;DHT22;33995;48.202;16.260;2023-04-24T05:33:37;14.00;99.90
48206;DHT22;33995;48.202;16.260;2023-04-24T05:36:07;14.00;99.90
48206;DHT22;33995;48.202;16.260;2023-04-24T05:38:34;14.10;99.90
48206;DHT22;33995;48.202;16.260;2023-04-24T05:41:01;14.20;99.90
48206;DHT22;33995;48.202;16.260;2023-04-24T05:43:28;14.20;99.90
48206;DHT22;33995;48.202;16.260;2023-04-24T05:45:55;14.30;99.90
48206;DHT22;33995;48.202;16.260;2023-04-24T05:48:23;14.30;99.90
48206;DHT22;33995;48.202;16.260;2023-04-24T05:50:51;14.30;99.90
48206;DHT22;33995;48.202;16.260;2023-04-24T05:53:19;14.30;99.90
48206;DHT22;33995;48.202;16.260;2023-04-24T05:55:47;14.40;99.90
48206;DHT22;33995;48.202;16.260;2023-04-24T05:58:15;14.50;99.90
48206;DHT22;33995;48.202;16.260;2023-04-24T06:00:42;14.50;99.90
48206;DHT22;33995;48.202;16.260;2023-04-24T06:03:11;14.60;99.90
48206;DHT22;33995;48.202;16.260;2023-04-24T06:05:39;14.60;99.90
48206;DHT22;33995;48.202;16.260;2023-04-24T06:08:07;14.60;99.90
48206;DHT22;33995;48.202;16.260;2023-04-24T06:10:42;14.70;99.90
48206;DHT22;33995;48.202;16.260;2023-04-24T06:13:10;14.90;99.90
48206;DHT22;33995;48.202;16.260;2023-04-24T06:15:42;14.90;99.90
48206;DHT22;33995;48.202;16.260;2023-04-24T06:18:15;14.90;99.90
48206;DHT22;33995;48.202;16.260;2023-04-24T06:20:45;14.90;99.90
48206;DHT22;33995;48.202;16.260;2023-04-24T06:23:12;14.90;99.90
48206;DHT22;33995;48.202;16.260;2023-04-24T06:25:39;15.00;99.90
48206;DHT22;33995;48.202;16.260;2023-04-24T06:28:06;15.00;99.90
48206;DHT22;33995;48.202;16.260;2023-04-24T06:30:34;15.00;99.90
48206;DHT22;33995;48.202;16.260;2023-04-24T06:33:03;15.00;99.90
48206;DHT22;33995;48.202;16.260;2023-04-24T06:35:47;15.10;99.90
48206;DHT22;33995;48.202;16.260;2023-04-24T06:38:14;15.20;99.90
48206;DHT22;33995;48.202;16.260;2023-04-24T06:40:41;15.10;99.90
48206;DHT22;33995;48.202;16.260;2023-04-24T06:43:10;15.30;99.90
48206;DHT22;33995;48.202;16.260;2023-04-24T06:45:38;15.30;99.90
48206;DHT22;33995;48.202;16.260;2023-04-24T06:48:06;15.30;99.90
48206;DHT22;33995;48.202;16.260;2023-04-24T06:50:36;15.40;99.90
48206;DHT22;33995;48.202;16.260;2023-04-24T06:53:03;15.40;99.90
48206;DHT22;33995;48.202;16.260;2023-04-24T06:55:30;15.50;99.90
48206;DHT22;33995;48.202;16.260;2023-04-24T06:57:57;15.60;99.90
48206;DHT22;33995;48.202;16.260;2023-04-24T07:00:25;15.70;99.90
48206;DHT22;33995;48.202;16.260;2023-04-24T07:02:52;15.80;99.90
48206;DHT22;33995;48.202;16.260;2023-04-24T07:05:20;15.90;99.90
48206;DHT22;33995;48.202;16.260;2023-04-24T07:07:47;15.90;99.90
48206;DHT22;33995;48.202;16.260;2023-04-24T07:10:15;15.90;99.90
48206;DHT22;33995;48.202;16.260;2023-04-24T07:12:45;15.90;99.90
48206;DHT22;33995;48.202;16.260;2023-04-24T07:15:14;16.00;99.90
48206;DHT22;33995;48.202;16.260;2023-04-24T07:17:41;15.90;99.90
48206;DHT22;33995;48.202;16.260;2023-04-24T07:20:11;15.90;99.90
48206;DHT22;33995;48.202;16.260;2023-04-24T07:22:38;15.70;99.90
48206;DHT22;33995;48.202;16.260;2023-04-24T07:25:06;15.70;99.90
48206;DHT22;33995;48.202;16.260;2023-04-24T07:27:34;15.60;99.90
48206;DHT22;33995;48.202;16.260;2023-04-24T07:30:03;15.70;99.90
48206;DHT22;33995;48.202;16.260;2023-04-24T07:32:32;15.70;99.90
48206;DHT22;33995;48.202;16.260;2023-04-24T07:34:59;15.70;99.90
48206;DHT22;33995;48.202;16.260;2023-04-24T07:37:26;15.80;99.90
48206;DHT22;33995;48.202;16.260;2023-04-24T07:39:54;15.70;99.90
48206;DHT22;33995;48.202;16.260;2023-04-24T07:42:22;15.80;99.90
48206;DHT22;33995;48.202;16.260;2023-04-24T07:44:51;15.80;99.90
48206;DHT22;33995;48.202;16.260;2023-04-24T07:47:20;15.70;99.90
48206;DHT22;33995;48.202;16.260;2023-04-24T07:49:48;15.70;99.90
48206;DHT22;33995;48.202;16.260;2023-04-24T07:52:15;15.70;99.90
48206;DHT22;33995;48.202;16.260;2023-04-24T07:54:43;15.70;99.90
48206;DHT22;33995;48.202;16.260;2023-04-24T07:57:11;15.60;99.90
48206;DHT22;33995;48.202;16.260;2023-04-24T07:59:38;15.60;99.90
48206;DHT22;33995;48.202;16.260;2023-04-24T08:02:06;15.60;99.90
48206;DHT22;33995;48.202;16.260;2023-04-24T08:04:33;15.60;99.90
48206;DHT22;33995;48.202;16.260;2023-04-24T08:07:00;15.50;99.90
48206;DHT22;33995;48.202;16.260;2023-04-24T08:09:28;15.60;99.90
48206;DHT22;33995;48.202;16.260;2023-04-24T08:11:56;15.60;99.90
48206;DHT22;33995;48.202;16.260;2023-04-24T08:14:23;15.60;99.90
48206;DHT22;33995;48.202;16.260;2023-04-24T08:16:50;15.60;99.90
48206;DHT22;33995;48.202;16.260;2023-04-24T08:19:18;15.70;99.90
48206;DHT22;33995;48.202;16.260;2023-04-24T08:21:46;15.60;99.90
48206;DHT22;33995;48.202;16.260;2023-04-24T08:24:13;15.60;99.90
48206;DHT22;33995;48.202;16.260;2023-04-24T08:26:40;15.60;99.90
48206;DHT22;33995;48.202;16.260;2023-04-24T08:29:08;15.60;99.90
48206;DHT22;33995;48.202;16.260;2023-04-24T08:31:37;15.50;99.90
48206;DHT22;33995;48.202;16.260;2023-04-24T08:34:04;15.40;99.90
48206;DHT22;33995;48.202;16.260;2023-04-24T08:36:32;15.20;99.90
48206;DHT22;33995;48.202;16.260;2023-04-24T08:39:14;15.00;99.90
48206;DHT22;33995;48.202;16.260;2023-04-24T08:41:43;15.00;99.90
48206;DHT22;33995;48.202;16.260;2023-04-24T08:44:10;14.70;99.90
48206;DHT22;33995;48.202;16.260;2023-04-24T08:46:40;14.80;99.90
48206;DHT22;33995;48.202;16.260;2023-04-24T08:49:08;14.70;99.90
48206;DHT22;33995;48.202;16.260;2023-04-24T08:51:37;14.60;99.90
48206;DHT22;33995;48.202;16.260;2023-04-24T08:54:04;14.50;99.90
48206;DHT22;33995;48.202;16.260;2023-04-24T08:56:35;14.50;99.90
48206;DHT22;33995;48.202;16.260;2023-04-24T08:59:05;14.50;99.90
48206;DHT22;33995;48.202;16.260;2023-04-24T09:01:33;14.50;99.90
48206;DHT22;33995;48.202;16.260;2023-04-24T09:04:03;14.50;99.90
48206;DHT22;33995;48.202;16.260;2023-04-24T09:06:31;14.60;99.90
48206;DHT22;33995;48.202;16.260;2023-04-24T09:09:02;14.40;99.90
48206;DHT22;33995;48.202;16.260;2023-04-24T09:11:31;14.10;99.90
48206;DHT22;33995;48.202;16.260;2023-04-24T09:14:01;14.10;99.90
48206;DHT22;33995;48.202;16.260;2023-04-24T09:16:29;14.20;99.90
48206;DHT22;33995;48.202;16.260;2023-04-24T09:18:56;14.00;99.90
48206;DHT22;33995;48.202;16.260;2023-04-24T09:21:24;14.00;99.90
48206;DHT22;33995;48.202;16.260;2023-04-24T09:24:01;13.90;99.90
48206;DHT22;33995;48.202;16.260;2023-04-24T09:26:31;13.80;99.90
48206;DHT22;33995;48.202;16.260;2023-04-24T09:29:01;13.80;99.90
48206;DHT22;33995;48.202;16.260;2023-04-24T09:31:29;13.90;99.90
48206;DHT22;33995;48.202;16.260;2023-04-24T09:34:02;13.80;99.90
48206;DHT22;33995;48.202;16.260;2023-04-24T09:36:39;13.70;99.90
48206;DHT22;33995;48.202;16.260;2023-04-24T09:39:12;13.80;99.90
48206;DHT22;33995;48.202;16.260;2023-04-24T09:41:48;13.90;99.90
48206;DHT22;33995;48.202;16.260;2023-04-24T09:44:17;13.90;99.90
48206;DHT22;33995;48.202;16.260;2023-04-24T09:46:46;13.90;99.90
48206;DHT22;33995;48.202;16.260;2023-04-24T09:49:21;13.80;99.90
48206;DHT22;33995;48.202;16.260;2023-04-24T09:51:48;13.80;99.90
48206;DHT22;33995;48.202;16.260;2023-04-24T09:54:16;13.80;99.90
48206;DHT22;33995;48.202;16.260;2023-04-24T09:56:46;13.80;99.90
48206;DHT22;33995;48.202;16.260;2023-04-24T09:59:16;13.80;99.90
48206;DHT22;33995;48.202;16.260;2023-04-24T10:01:44;13.90;99.90
48206;DHT22;33995;48.202;16.260;2023-04-24T10:04:23;13.90;99.90
48206;DHT22;33995;48.202;16.260;2023-04-24T10:06:53;13.90;99.90
48206;DHT22;33995;48.202;16.260;2023-04-24T10:09:26;13.90;99.90
48206;DHT22;33995;48.202;16.260;2023-04-24T10:11:55;13.90;99.90
48206;DHT22;33995;48.202;16.260;2023-04-24T10:14:23;13.80;99.90
48206;DHT22;33995;48.202;16.260;2023-04-24T10:16:55;13.80;99.90
48206;DHT22;33995;48.202;16.260;2023-04-24T10:19:26;14.00;99.90
48206;DHT22;33995;48.202;16.260;2023-04-24T10:21:53;13.90;99.90
48206;DHT22;33995;48.202;16.260;2023-04-24T10:24:22;13.80;99.90
48206;DHT22;33995;48.202;16.260;2023-04-24T10:26:49;13.80;99.90
48206;DHT22;33995;48.202;16.260;2023-04-24T10:29:18;13.80;99.90
48206;DHT22;33995;48.202;16.260;2023-04-24T10:31:45;13.90;99.90
48206;DHT22;33995;48.202;16.260;2023-04-24T10:34:17;14.00;99.90
48206;DHT22;33995;48.202;16.260;2023-04-24T10:36:49;14.00;99.90
48206;DHT22;33995;48.202;16.260;2023-04-24T10:39:18;14.10;99.90
48206;DHT22;33995;48.202;16.260;2023-04-24T10:41:54;14.00;99.90
48206;DHT22;33995;48.202;16.260;2023-04-24T10:44:24;13.80;99.90
48206;DHT22;33995;48.202;16.260;2023-04-24T10:46:55;13.80;99.90
48206;DHT22;33995;48.202;16.260;2023-04-24T10:49:30;13.80;99.90
48206;DHT22;33995;48.202;16.260;2023-04-24T10:52:03;14.00;99.90
48206;DHT22;33995;48.202;16.260;2023-04-24T10:54:41;14.00;99.90
48206;DHT22;33995;48.202;16.260;2023-04-24T11:00:16;14.10;99.90
48206;DHT22;33995;48.202;16.260;2023-04-24T11:02:47;14.20;99.90
48206;DHT22;33995;48.202;16.260;2023-04-24T11:05:21;14.20;99.90
48206;DHT22;33995;48.202;16.260;2023-04-24T11:08:11;14.10;99.90
48206;DHT22;33995;48.202;16.260;2023-04-24T11:11:10;14.00;99.90
48206;DHT22;33995;48.202;16.260;2023-04-24T11:19:10;14.20;99.90
48206;DHT22;33995;48.202;16.260;2023-04-24T11:22:03;14.10;99.90
48206;DHT22;33995;48.202;16.260;2023-04-24T11:27:20;14.10;99.90
48206;DHT22;33995;48.202;16.260;2023-04-24T11:32:26;14.00;99.90
48206;DHT22;33995;48.202;16.260;2023-04-24T11:34:55;14.00;99.90
48206;DHT22;33995;48.202;16.260;2023-04-24T11:37:45;14.10;99.90
48206;DHT22;33995;48.202;16.260;2023-04-24T11:40:24;14.00;99.90
48206;DHT22;33995;48.202;16.260;2023-04-24T11:42:53;13.90;99.90
48206;DHT22;33995;48.202;16.260;2023-04-24T11:45:25;13.90;99.90
48206;DHT22;33995;48.202;16.260;2023-04-24T11:47:54;14.00;99.90
48206;DHT22;33995;48.202;16.260;2023-04-24T11:50:23;14.10;99.90
48206;DHT22;33995;48.202;16.260;2023-04-24T11:52:51;14.10;99.90
48206;DHT22;33995;48.202;16.260;2023-04-24T11:55:27;14.30;99.90
48206;DHT22;33995;48.202;16.260;2023-04-24T11:57:57;14.30;99.90
48206;DHT22;33995;48.202;16.260;2023-04-24T12:00:29;14.40;99.90
48206;DHT22;33995;48.202;16.260;2023-04-24T12:03:10;14.70;99.90
48206;DHT22;33995;48.202;16.260;2023-04-24T12:05:39;14.90;99.90
48206;DHT22;33995;48.202;16.260;2023-04-24T12:08:06;15.00;99.90
48206;DHT22;33995;48.202;16.260;2023-04-24T12:10:34;15.20;99.90
48206;DHT22;33995;48.202;16.260;2023-04-24T12:13:02;15.40;99.90
48206;DHT22;33995;48.202;16.260;2023-04-24T12:15:29;15.60;99.90
48206;DHT22;33995;48.202;16.260;2023-04-24T12:17:56;15.70;99.90
48206;DHT22;33995;48.202;16.260;2023-04-24T12:20:30;15.40;99.90
48206;DHT22;33995;48.202;16.260;2023-04-24T12:23:00;15.30;99.90
48206;DHT22;33995;48.202;16.260;2023-04-24T12:25:31;15.50;99.90
48206;DHT22;33995;48.202;16.260;2023-04-24T12:30:34;15.40;99.90
48206;DHT22;33995;48.202;16.260;2023-04-24T12:33:02;15.50;99.90
48206;DHT22;33995;48.202;16.260;2023-04-24T12:35:32;15.60;99.90
48206;DHT22;33995;48.202;16.260;2023-04-24T12:38:11;15.50;99.90
48206;DHT22;33995;48.202;16.260;2023-04-24T12:40:42;15.60;99.90
48206;DHT22;33995;48.202;16.260;2023-04-24T12:43:14;15.50;99.90
48206;DHT22;33995;48.202;16.260;2023-04-24T12:45:44;15.50;99.90
48206;DHT22;33995;48.202;16.260;2023-04-24T12:48:15;15.60;99.90
48206;DHT22;33995;48.202;16.260;2023-04-24T12:50:43;15.70;99.90
48206;DHT22;33995;48.202;16.260;2023-04-24T12:53:14;15.70;99.90
48206;DHT22;33995;48.202;16.260;2023-04-24T12:55:42;15.60;99.90
48206;DHT22;33995;48.202;16.260;2023-04-24T12:58:09;15.50;99.90
48206;DHT22;33995;48.202;16.260;2023-04-24T13:00:38;15.40;99.90
48206;DHT22;33995;48.202;16.260;2023-04-24T13:03:08;15.40;99.90
48206;DHT22;33995;48.202;16.260;2023-04-24T13:05:37;15.30;99.90
48206;DHT22;33995;48.202;16.260;2023-04-24T13:08:04;15.40;99.90
48206;DHT22;33995;48.202;16.260;2023-04-24T13:10:32;15.40;99.90
48206;DHT22;33995;48.202;16.260;2023-04-24T13:13:02;15.20;99.90
48206;DHT22;33995;48.202;16.260;2023-04-24T13:15:30;15.40;99.90
48206;DHT22;33995;48.202;16.260;2023-04-24T13:17:57;15.50;99.90
48206;DHT22;33995;48.202;16.260;2023-04-24T13:20:24;15.70;99.90
48206;DHT22;33995;48.202;16.260;2023-04-24T13:22:52;15.80;99.90
48206;DHT22;33995;48.202;16.260;2023-04-24T13:25:19;15.90;99.90
48206;DHT22;33995;48.202;16.260;2023-04-24T13:27:47;15.80;99.90
48206;DHT22;33995;48.202;16.260;2023-04-24T13:30:14;15.80;99.90
48206;DHT22;33995;48.202;16.260;2023-04-24T13:32:41;15.80;99.90
48206;DHT22;33995;48.202;16.260;2023-04-24T13:35:08;15.90;99.90
48206;DHT22;33995;48.202;16.260;2023-04-24T13:37:35;15.90;99.90
48206;DHT22;33995;48.202;16.260;2023-04-24T13:40:03;15.70;99.90
48206;DHT22;33995;48.202;16.260;2023-04-24T13:42:34;15.50;99.90
48206;DHT22;33995;48.202;16.260;2023-04-24T13:45:01;15.50;99.90
48206;DHT22;33995;48.202;16.260;2023-04-24T13:47:48;15.40;99.90
48206;DHT22;33995;48.202;16.260;2023-04-24T13:50:20;15.20;99.90
48206;DHT22;33995;48.202;16.260;2023-04-24T13:52:48;15.20;99.90
48206;DHT22;33995;48.202;16.260;2023-04-24T13:55:16;15.10;99.90
48206;DHT22;33995;48.202;16.260;2023-04-24T13:57:43;15.10;99.90
48206;DHT22;33995;48.202;16.260;2023-04-24T14:00:10;15.00;99.90
48206;DHT22;33995;48.202;16.260;2023-04-24T14:02:38;15.00;99.90
48206;DHT22;33995;48.202;16.260;2023-04-24T14:05:05;15.10;99.90
48206;DHT22;33995;48.202;16.260;2023-04-24T14:07:33;15.10;99.90
48206;DHT22;33995;48.202;16.260;2023-04-24T14:10:00;15.10;99.90
48206;DHT22;33995;48.202;16.260;2023-04-24T14:12:27;15.10;99.90
48206;DHT22;33995;48.202;16.260;2023-04-24T14:14:55;15.10;99.90
48206;DHT22;33995;48.202;16.260;2023-04-24T14:17:22;15.10;99.90
48206;DHT22;33995;48.202;16.260;2023-04-24T14:19:49;15.00;99.90
48206;DHT22;33995;48.202;16.260;2023-04-24T14:22:17;14.90;99.90
48206;DHT22;33995;48.202;16.260;2023-04-24T14:24:44;14.70;99.90
48206;DHT22;33995;48.202;16.260;2023-04-24T14:27:12;14.80;99.90
48206;DHT22;33995;48.202;16.260;2023-04-24T14:29:41;14.70;99.90
48206;DHT22;33995;48.202;16.260;2023-04-24T14:32:08;14.70;99.90
48206;DHT22;33995;48.202;16.260;2023-04-24T14:34:35;14.60;99.90
48206;DHT22;33995;48.202;16.260;2023-04-24T14:37:02;14.50;99.90
48206;DHT22;33995;48.202;16.260;2023-04-24T14:39:29;14.40;99.90
48206;DHT22;33995;48.202;16.260;2023-04-24T14:41:57;14.40;99.90
48206;DHT22;33995;48.202;16.260;2023-04-24T14:44:24;14.50;99.90
48206;DHT22;33995;48.202;16.260;2023-04-24T14:46:51;14.40;99.90
48206;DHT22;33995;48.202;16.260;2023-04-24T14:49:18;14.40;99.90
48206;DHT22;33995;48.202;16.260;2023-04-24T14:51:45;14.60;99.90
48206;DHT22;33995;48.202;16.260;2023-04-24T14:54:13;14.60;99.90
48206;DHT22;33995;48.202;16.260;2023-04-24T14:56:42;14.60;99.90
48206;DHT22;33995;48.202;16.260;2023-04-24T14:59:11;14.50;99.90
48206;DHT22;33995;48.202;16.260;2023-04-24T15:01:38;14.50;99.90
48206;DHT22;33995;48.202;16.260;2023-04-24T15:04:06;14.40;99.90
48206;DHT22;33995;48.202;16.260;2023-04-24T15:06:33;14.50;99.90
48206;DHT22;33995;48.202;16.260;2023-04-24T15:09:00;14.50;99.90
48206;DHT22;33995;48.202;16.260;2023-04-24T15:11:27;14.40;99.90
48206;DHT22;33995;48.202;16.260;2023-04-24T15:13:55;14.40;99.90
48206;DHT22;33995;48.202;16.260;2023-04-24T15:16:25;14.40;99.90
48206;DHT22;33995;48.202;16.260;2023-04-24T15:18:52;14.40;99.90
48206;DHT22;33995;48.202;16.260;2023-04-24T15:21:19;14.30;99.90
48206;DHT22;33995;48.202;16.260;2023-04-24T15:23:46;14.20;99.90
48206;DHT22;33995;48.202;16.260;2023-04-24T15:26:14;14.10;99.90
48206;DHT22;33995;48.202;16.260;2023-04-24T15:28:41;14.10;99.90
48206;DHT22;33995;48.202;16.260;2023-04-24T15:31:09;14.00;99.90
48206;DHT22;33995;48.202;16.260;2023-04-24T15:33:39;13.90;99.90
48206;DHT22;33995;48.202;16.260;2023-04-24T15:36:07;13.60;99.90
48206;DHT22;33995;48.202;16.260;2023-04-24T15:38:35;13.40;99.90
48206;DHT22;33995;48.202;16.260;2023-04-24T15:41:02;13.50;99.90
48206;DHT22;33995;48.202;16.260;2023-04-24T15:43:29;13.40;99.90
48206;DHT22;33995;48.202;16.260;2023-04-24T15:45:57;13.50;99.90